Time;durP1;ratioP1;P1;durP2;ratioP2;P2;SDS_P1;SDS_P2;PMS_P1;PMS_P2;Temp;Humidity;BMP_temperature;BMP_pressure;BME280_temperature;BME280_humidity;BME280_pressure;Samples;Min_cycle;Max_cycle;Signal;HPM_P1;HPM_P2
2021/10/25 00:00:01;;;;;;;13.70;7.25;;;;;;;2.89;88.84;98593.50;4965088;28;20048;-61
2021/10/25 00:02:27;;;;;;;16.60;7.30;;;;;;;2.95;89.49;98594.38;4967016;28;20045;-62
2021/10/25 00:04:52;;;;;;;17.77;7.18;;;;;;;3.01;88.21;98599.50;4967148;28;20022;-62
2021/10/25 00:07:18;;;;;;;12.98;7.40;;;;;;;2.97;88.72;98588.34;4966545;28;20113;-61
2021/10/25 00:09:43;;;;;;;16.10;7.10;;;;;;;2.92;89.48;98587.47;4970540;28;20019;-62
2021/10/25 00:12:08;;;;;;;14.85;7.57;;;;;;;3.03;89.62;98592.63;4967732;28;20081;-64
2021/10/25 00:14:34;;;;;;;15.90;7.10;;;;;;;2.96;88.70;98585.75;4968352;28;20041;-62
2021/10/25 00:16:59;;;;;;;18.38;7.38;;;;;;;2.93;88.80;98588.38;4966578;28;20085;-61
2021/10/25 00:19:25;;;;;;;13.43;7.15;;;;;;;2.87;89.31;98586.66;4967782;28;20086;-62
2021/10/25 00:21:51;;;;;;;15.00;7.28;;;;;;;2.91;88.88;98582.34;4968523;28;20038;-63
2021/10/25 00:24:17;;;;;;;14.95;6.80;;;;;;;3.01;88.38;98584.03;4969038;28;20022;-63
2021/10/25 00:26:42;;;;;;;15.07;7.22;;;;;;;2.82;87.26;98578.06;4969816;28;20045;-61
2021/10/25 00:29:08;;;;;;;13.13;6.63;;;;;;;2.79;87.78;98585.78;4968661;28;20019;-61
2021/10/25 00:31:33;;;;;;;15.02;6.90;;;;;;;2.72;88.57;98582.38;4967684;28;20582;-63
2021/10/25 00:33:59;;;;;;;18.85;7.03;;;;;;;2.87;88.29;98577.19;4967174;28;20104;-62
2021/10/25 00:36:24;;;;;;;14.88;6.97;;;;;;;2.65;91.55;98575.50;4967416;28;20046;-62
2021/10/25 00:38:50;;;;;;;15.43;7.40;;;;;;;2.85;88.75;98583.22;4967556;28;20971;-63
2021/10/25 00:41:15;;;;;;;15.77;7.05;;;;;;;2.78;89.45;98579.78;4969384;28;20043;-62
2021/10/25 00:43:41;;;;;;;14.88;7.20;;;;;;;2.76;88.62;98584.06;4969091;28;20207;-61
2021/10/25 00:46:07;;;;;;;14.00;6.70;;;;;;;2.61;88.66;98584.06;4968594;28;20069;-63
2021/10/25 00:48:33;;;;;;;14.23;6.85;;;;;;;2.53;91.29;98576.34;4969386;28;20031;-62
2021/10/25 00:50:58;;;;;;;20.30;7.40;;;;;;;2.76;88.78;98576.34;4968372;28;20830;-61
2021/10/25 00:53:24;;;;;;;16.50;7.28;;;;;;;2.72;89.68;98572.06;4970343;28;20478;-60
2021/10/25 00:55:50;;;;;;;16.05;6.80;;;;;;;2.67;88.64;98576.34;4967745;28;20053;-63
2021/10/25 00:58:17;;;;;;;14.73;7.20;;;;;;;2.68;89.10;98573.78;4970413;28;20133;-61
2021/10/25 01:00:42;;;;;;;13.77;6.88;;;;;;;2.73;89.90;98578.91;4966973;28;20097;-62
2021/10/25 01:03:08;;;;;;;11.77;6.65;;;;;;;2.75;88.87;98577.19;4969657;28;20027;-63
2021/10/25 01:05:33;;;;;;;14.57;7.60;;;;;;;2.75;90.15;98572.03;4965816;28;20031;-61
2021/10/25 01:08:02;;;;;;;18.00;7.47;;;;;;;2.76;88.65;98572.88;4967329;28;20034;-61
2021/10/25 01:10:28;;;;;;;14.23;7.03;;;;;;;2.74;88.81;98567.75;4967729;28;20055;-62
2021/10/25 01:12:54;;;;;;;20.08;7.15;;;;;;;2.73;88.31;98573.75;4965889;28;20133;-63
2021/10/25 01:15:20;;;;;;;16.17;7.25;;;;;;;2.61;89.70;98568.59;4966516;28;20088;-63
2021/10/25 01:17:52;;;;;;;15.75;7.60;;;;;;;2.70;88.47;98566.91;4967926;28;20034;-61
2021/10/25 01:20:17;;;;;;;13.07;7.40;;;;;;;2.64;88.44;98569.47;4966358;28;20033;-62
2021/10/25 01:22:42;;;;;;;13.55;6.68;;;;;;;2.68;88.27;98565.16;4966325;28;20023;-61
2021/10/25 01:25:08;;;;;;;14.40;7.07;;;;;;;2.56;88.46;98563.47;4967740;28;20255;-63
2021/10/25 01:27:33;;;;;;;17.88;7.15;;;;;;;2.64;87.86;98566.88;4967509;28;20782;-62
2021/10/25 01:29:58;;;;;;;15.32;7.03;;;;;;;2.55;88.58;98563.47;4969129;28;20252;-61
2021/10/25 01:32:24;;;;;;;14.82;7.50;;;;;;;2.61;88.72;98566.03;4967512;28;20042;-61
2021/10/25 01:34:49;;;;;;;14.82;7.07;;;;;;;2.55;88.72;98564.31;4966547;28;20034;-63
2021/10/25 01:37:15;;;;;;;12.23;6.68;;;;;;;2.35;88.32;98561.72;4967914;28;20066;-63
2021/10/25 01:39:41;;;;;;;15.20;6.78;;;;;;;2.34;88.45;98565.16;4967419;28;20042;-62
2021/10/25 01:42:07;;;;;;;15.48;7.43;;;;;;;2.27;92.64;98573.75;4967359;28;20142;-62
2021/10/25 01:44:33;;;;;;;15.95;6.78;;;;;;;2.49;90.13;98570.31;4969360;28;20026;-61
2021/10/25 01:46:59;;;;;;;15.05;6.93;;;;;;;2.45;88.98;98576.34;4966640;28;20038;-61
2021/10/25 01:49:24;;;;;;;17.13;7.07;;;;;;;2.51;88.66;98573.75;4967681;28;20038;-62
2021/10/25 01:51:50;;;;;;;11.75;6.57;;;;;;;2.38;89.80;98574.59;4970916;28;20038;-63
2021/10/25 01:54:15;;;;;;;12.57;7.00;;;;;;;2.35;89.68;98571.16;4971021;28;20147;-62
2021/10/25 01:56:42;;;;;;;12.57;6.57;;;;;;;2.41;89.22;98566.00;4969907;28;20066;-62
2021/10/25 01:59:07;;;;;;;21.70;7.38;;;;;;;2.27;88.86;98563.44;4972292;28;20022;-61
2021/10/25 02:01:33;;;;;;;12.48;6.68;;;;;;;2.07;91.98;98566.84;4968425;28;20030;-62
2021/10/25 02:03:59;;;;;;;15.55;6.22;;;;;;;2.24;90.03;98574.59;4970337;28;20045;-63
2021/10/25 02:06:24;;;;;;;17.20;7.15;;;;;;;1.99;91.54;98555.69;4973428;28;20098;-61
2021/10/25 02:08:50;;;;;;;17.05;7.35;;;;;;;2.20;89.33;98561.72;4973553;28;20109;-61
2021/10/25 02:11:16;;;;;;;14.85;6.72;;;;;;;2.11;88.36;98563.44;4966422;28;20038;-63
2021/10/25 02:13:42;;;;;;;16.83;6.70;;;;;;;2.25;87.50;98565.16;4970993;28;20890;-62
2021/10/25 02:16:09;;;;;;;16.92;6.45;;;;;;;2.07;89.23;98561.69;4969687;28;20043;-61
2021/10/25 02:18:34;;;;;;;15.05;6.72;;;;;;;1.99;90.74;98563.41;4972930;28;20092;-63
2021/10/25 02:21:00;;;;;;;14.48;7.10;;;;;;;2.13;88.47;98550.53;4971881;28;20042;-63
2021/10/25 02:23:26;;;;;;;15.75;6.93;;;;;;;2.26;88.36;98556.56;4971223;28;20118;-62
2021/10/25 02:25:53;;;;;;;14.73;7.25;;;;;;;2.07;91.70;98551.38;4969430;28;20081;-64
2021/10/25 02:28:20;;;;;;;12.02;6.25;;;;;;;2.05;88.23;98550.53;4970797;28;20705;-60
2021/10/25 02:30:46;;;;;;;12.32;6.50;;;;;;;2.01;89.67;98551.38;4969432;28;20048;-61
2021/10/25 02:33:11;;;;;;;12.85;6.75;;;;;;;1.99;87.67;98550.53;4970495;28;20030;-60
2021/10/25 02:35:36;;;;;;;15.82;6.70;;;;;;;2.12;87.45;98544.53;4971505;28;20101;-63
2021/10/25 02:38:02;;;;;;;13.63;6.93;;;;;;;2.12;88.42;98541.97;4968619;28;20047;-62
2021/10/25 02:40:29;;;;;;;14.05;6.38;;;;;;;2.01;88.14;98535.94;4971145;28;20069;-62
2021/10/25 02:42:56;;;;;;;15.63;6.35;;;;;;;1.88;89.12;98534.22;4970550;28;20030;-63
2021/10/25 02:45:23;;;;;;;15.80;7.50;;;;;;;1.96;89.29;98531.66;4968842;28;20126;-62
2021/10/25 02:47:48;;;;;;;17.33;7.43;;;;;;;2.19;87.54;98532.56;4969234;28;20026;-62
2021/10/25 02:50:14;;;;;;;14.88;6.72;;;;;;;2.15;88.54;98535.09;4973303;28;20027;-60
2021/10/25 02:52:40;;;;;;;16.17;7.75;;;;;;;1.75;90.83;98528.19;4970445;28;20397;-63
2021/10/25 02:55:06;;;;;;;19.38;7.57;;;;;;;1.76;91.20;98527.31;4971397;28;20046;-63
2021/10/25 02:57:31;;;;;;;18.75;7.35;;;;;;;2.07;89.64;98525.66;4971323;28;20015;-61
2021/10/25 02:59:57;;;;;;;12.32;6.75;;;;;;;2.10;88.29;98529.97;4969282;28;20019;-62
2021/10/25 03:02:23;;;;;;;16.45;7.00;;;;;;;1.72;89.79;98528.16;4972348;28;20035;-63
2021/10/25 03:04:48;;;;;;;13.45;6.75;;;;;;;1.88;88.94;98527.34;4970461;28;20121;-62
2021/10/25 03:07:14;;;;;;;13.45;6.60;;;;;;;1.87;88.86;98528.19;4967947;28;20049;-62
2021/10/25 03:09:40;;;;;;;16.17;6.50;;;;;;;1.84;87.68;98528.22;4971655;28;20701;-63
2021/10/25 03:12:06;;;;;;;13.93;6.93;;;;;;;1.89;86.74;98525.63;4968913;28;20122;-61
2021/10/25 03:14:31;;;;;;;15.07;6.20;;;;;;;1.79;86.45;98531.63;4970522;28;20117;-61
2021/10/25 03:16:57;;;;;;;13.38;6.82;;;;;;;1.87;88.67;98542.78;4970578;28;20444;-62
2021/10/25 03:19:23;;;;;;;16.92;6.47;;;;;;;1.75;87.79;98553.91;4969435;28;20070;-61
2021/10/25 03:21:49;;;;;;;11.73;6.10;;;;;;;1.64;88.98;98543.56;4968744;28;20122;-63
2021/10/25 03:24:15;;;;;;;15.43;6.43;;;;;;;1.71;86.72;98542.75;4968984;28;20500;-61
2021/10/25 03:26:40;;;;;;;12.85;6.63;;;;;;;1.55;89.66;98546.13;4966663;28;20050;-61
2021/10/25 03:29:06;;;;;;;12.38;6.30;;;;;;;1.77;88.88;98541.06;4968395;28;20033;-62
2021/10/25 03:31:31;;;;;;;12.55;6.55;;;;;;;1.63;88.50;98538.41;4969226;28;20037;-60
2021/10/25 03:33:56;;;;;;;12.20;6.80;;;;;;;1.71;88.93;98522.16;4969149;28;20788;-63
2021/10/25 03:36:26;;;;;;;13.13;6.50;;;;;;;1.82;88.09;98536.75;4968492;28;20045;-63
2021/10/25 03:38:52;;;;;;;16.10;6.40;;;;;;;1.68;88.67;98531.59;4970120;28;20042;-63
2021/10/25 03:41:22;;;;;;;12.77;6.50;;;;;;;1.79;89.01;98529.03;4968548;28;20552;-60
2021/10/25 03:43:56;;;;;;;12.98;7.00;;;;;;;1.78;89.07;98532.47;4966820;28;20081;-64
2021/10/25 03:49:04;;;;;;;14.88;7.55;;;;;;;1.69;90.38;98534.16;4968505;28;20034;-60
2021/10/25 03:51:30;;;;;;;;;;;;;;;1.94;90.04;98539.38;4970116;28;20065;-63
2021/10/25 03:59:34;;;;;;;12.13;6.72;;;;;;;1.88;91.83;98532.50;4969834;28;20038;-63
2021/10/25 04:02:20;;;;;;;14.82;7.22;;;;;;;2.19;89.38;98523.94;4969210;28;20104;-63
2021/10/25 04:26:54;;;;;;;15.93;7.90;;;;;;;2.17;90.09;98515.38;4967605;28;20045;-61
2021/10/25 04:29:24;;;;;;;17.73;8.27;;;;;;;2.21;90.62;98509.41;4968263;28;20481;-64
2021/10/25 04:31:49;;;;;;;15.90;7.57;;;;;;;2.09;89.79;98518.78;4966891;28;20057;-63
2021/10/25 04:34:15;;;;;;;17.40;7.53;;;;;;;1.93;91.02;98507.63;4968683;28;20026;-60
2021/10/25 04:36:40;;;;;;;14.18;6.90;;;;;;;2.03;90.72;98512.81;4966130;28;20421;-61
2021/10/25 04:39:09;;;;;;;17.65;7.97;;;;;;;2.04;90.03;98505.09;4968233;28;20034;-61
2021/10/25 04:41:35;;;;;;;14.70;7.63;;;;;;;2.12;89.12;98515.38;4968966;28;20094;-63
2021/10/25 04:44:01;;;;;;;14.63;7.70;;;;;;;2.18;88.82;98506.81;4969963;28;20034;-62
2021/10/25 04:46:26;;;;;;;16.88;7.80;;;;;;;2.05;92.90;98503.38;4968485;28;20097;-62
2021/10/25 04:48:51;;;;;;;17.77;7.93;;;;;;;2.28;89.38;98495.69;4968892;28;20026;-63
2021/10/25 04:51:17;;;;;;;16.48;7.53;;;;;;;2.19;90.04;98493.06;4965560;28;20038;-63
2021/10/25 04:53:42;;;;;;;16.00;7.70;;;;;;;2.19;88.95;98498.22;4968094;28;20122;-64
2021/10/25 04:56:08;;;;;;;19.33;8.25;;;;;;;2.24;89.65;98501.66;4968703;28;20096;-63
2021/10/25 04:58:33;;;;;;;18.90;8.25;;;;;;;2.26;89.83;98507.66;4968076;28;20050;-62
2021/10/25 05:00:58;;;;;;;17.77;8.07;;;;;;;2.30;89.88;98511.97;4966430;28;20156;-61
2021/10/25 05:03:24;;;;;;;16.40;7.72;;;;;;;2.19;88.60;98508.50;4969897;28;20657;-62
2021/10/25 05:05:49;;;;;;;15.88;7.90;;;;;;;2.11;90.91;98511.97;4970416;28;20058;-61
2021/10/25 05:08:15;;;;;;;15.30;7.65;;;;;;;2.28;90.27;98513.69;4972254;28;20062;-61
2021/10/25 05:10:40;;;;;;;17.05;7.97;;;;;;;2.31;89.29;98511.94;4972011;28;20042;-61
2021/10/25 05:13:05;;;;;;;14.93;7.53;;;;;;;2.11;90.18;98514.53;4970184;28;20723;-62
2021/10/25 05:15:32;;;;;;;17.15;8.02;;;;;;;2.01;91.47;98520.50;4972462;28;20496;-63
2021/10/25 05:17:57;;;;;;;17.65;7.78;;;;;;;2.13;89.18;98517.09;4970372;28;20027;-62
2021/10/25 05:20:23;;;;;;;16.17;8.00;;;;;;;2.19;89.56;98511.97;4969948;28;20097;-64
2021/10/25 05:22:48;;;;;;;19.95;8.38;;;;;;;1.67;93.58;98520.44;4969022;28;20142;-62
2021/10/25 05:25:13;;;;;;;14.68;7.90;;;;;;;1.59;96.09;98516.97;4972042;28;20113;-63
2021/10/25 05:27:39;;;;;;;15.35;7.95;;;;;;;1.95;92.82;98509.34;4975409;28;20508;-62
2021/10/25 05:30:06;;;;;;;19.60;8.15;;;;;;;2.12;92.20;98505.94;4974792;28;20027;-62
2021/10/25 05:32:31;;;;;;;17.27;8.18;;;;;;;2.08;90.35;98517.09;4972630;28;20053;-63
2021/10/25 05:34:56;;;;;;;19.88;9.05;;;;;;;2.22;89.75;98513.66;4984508;28;20027;-62
2021/10/25 05:37:22;;;;;;;16.08;8.82;;;;;;;2.20;90.25;98515.38;4975238;28;20039;-61
2021/10/25 05:39:47;;;;;;;20.17;8.52;;;;;;;1.87;93.61;98512.75;4973307;28;20045;-62
2021/10/25 05:42:13;;;;;;;16.23;8.13;;;;;;;2.27;91.43;98512.81;4972393;28;20464;-63
2021/10/25 05:44:38;;;;;;;15.13;8.35;;;;;;;2.36;92.34;98511.97;4976005;28;20546;-64
2021/10/25 05:47:05;;;;;;;21.27;9.48;;;;;;;2.42;91.43;98511.94;4974834;28;20070;-64
2021/10/25 05:49:30;;;;;;;19.00;8.80;;;;;;;2.24;91.60;98512.84;4977271;28;20385;-62
2021/10/25 05:51:56;;;;;;;17.13;8.50;;;;;;;2.42;90.76;98516.25;4977305;28;20520;-63
2021/10/25 05:54:21;;;;;;;23.35;9.60;;;;;;;2.36;90.55;98511.97;4974581;28;20510;-61
2021/10/25 05:56:48;;;;;;;19.83;9.48;;;;;;;2.33;91.26;98517.09;4973204;28;20772;-63
2021/10/25 05:59:15;;;;;;;25.23;9.55;;;;;;;2.60;90.57;98512.81;4977640;28;20053;-61
2021/10/25 06:01:55;;;;;;;20.52;7.95;;;;;;;2.66;90.64;98523.09;4976120;28;20649;-62
2021/10/25 06:04:21;;;;;;;19.27;6.72;;;;;;;2.81;90.74;98520.53;4975597;28;20059;-63
2021/10/25 06:06:47;;;;;;;16.40;6.05;;;;;;;3.05;90.03;98518.72;4974625;28;20587;-62
2021/10/25 06:09:12;;;;;;;19.05;8.05;;;;;;;2.55;92.86;98511.97;4972847;28;20038;-63
2021/10/25 06:11:38;;;;;;;15.93;7.15;;;;;;;2.88;91.75;98522.22;4973386;28;20049;-61
2021/10/25 06:14:06;;;;;;;22.25;8.45;;;;;;;2.93;92.87;98523.94;4976583;28;20416;-61
2021/10/25 06:16:42;;;;;;;17.83;7.82;;;;;;;2.91;91.16;98516.22;4974804;28;20038;-62
2021/10/25 06:19:10;;;;;;;18.23;7.68;;;;;;;2.37;93.24;98508.53;4974587;28;20030;-63
2021/10/25 06:21:36;;;;;;;17.83;5.28;;;;;;;3.26;92.29;98508.38;4972654;28;20038;-62
2021/10/25 06:24:01;;;;;;;18.70;7.95;;;;;;;3.09;89.79;98505.00;4973965;28;20034;-61
2021/10/25 06:26:27;;;;;;;24.55;8.32;;;;;;;3.30;91.95;98513.53;4974800;28;20084;-63
2021/10/25 06:28:53;;;;;;;17.45;8.23;;;;;;;3.23;89.43;98512.69;4973841;28;20408;-63
2021/10/25 06:31:19;;;;;;;16.27;8.27;;;;;;;3.16;89.25;98509.28;4972072;28;20134;-62
2021/10/25 06:33:46;;;;;;;14.25;7.47;;;;;;;3.40;92.41;98515.19;4973983;28;20091;-62
2021/10/25 06:36:13;;;;;;;16.42;8.35;;;;;;;3.31;88.88;98505.78;4969209;28;20035;-62
2021/10/25 06:39:09;;;;;;;15.13;6.22;;;;;;;3.61;91.11;98502.19;4973057;28;20030;-61
2021/10/25 06:41:27;;;;;;;20.90;6.95;;;;;;;4.43;95.08;98515.44;4971763;28;20035;-63
2021/10/25 06:43:53;;;;;;;20.92;9.40;;;;;;;4.18;89.48;98526.81;4974692;28;20453;-61
2021/10/25 06:46:19;;;;;;;17.73;8.05;;;;;;;4.26;86.74;98530.19;4973456;28;20031;-63
2021/10/25 06:48:45;;;;;;;29.85;8.38;;;;;;;4.57;92.09;98524.78;4972824;28;20523;-62
2021/10/25 06:51:10;;;;;;;18.40;8.27;;;;;;;5.15;91.45;98528.56;4972808;28;20038;-62
2021/10/25 06:53:35;;;;;;;19.63;9.15;;;;;;;5.49;88.09;98529.03;4974459;28;20053;-64
2021/10/25 06:56:01;;;;;;;17.15;9.18;;;;;;;5.08;88.92;98532.09;4974442;28;20059;-62
2021/10/25 06:58:26;;;;;;;17.65;8.95;;;;;;;4.73;92.90;98526.38;4974685;28;20026;-63
2021/10/25 07:00:52;;;;;;;18.77;7.68;;;;;;;5.06;93.59;98519.16;4975945;28;20113;-63
2021/10/25 07:03:17;;;;;;;15.50;8.60;;;;;;;4.18;88.44;98508.75;4972512;28;20038;-64
2021/10/25 07:05:43;;;;;;;13.98;7.25;;;;;;;4.98;95.80;98513.22;4971138;28;20100;-62
2021/10/25 07:08:09;;;;;;;15.90;7.88;;;;;;;5.03;87.55;98525.22;4973637;28;20048;-62
2021/10/25 07:10:37;;;;;;;16.08;8.68;;;;;;;4.16;88.26;98510.50;4971664;28;20694;-62
2021/10/25 07:13:02;;;;;;;17.20;9.02;;;;;;;4.54;91.53;98515.34;4971191;28;20030;-63
2021/10/25 07:15:30;;;;;;;16.63;8.73;;;;;;;4.71;88.96;98528.13;4973354;28;20105;-63
2021/10/25 08:01:49;;;;;;;20.20;8.52;;;;;;;6.84;83.10;98535.75;4970962;28;20162;-64
2021/10/25 08:04:32;;;;;;;13.73;8.38;;;;;;;7.62;85.91;98546.38;4972885;28;20101;-64
2021/10/25 08:07:09;;;;;;;13.10;8.07;;;;;;;7.93;86.28;98556.13;4973525;28;20050;-64
2021/10/25 08:12:04;;;;;;;15.68;8.45;;;;;;;8.09;76.68;98544.53;4970725;28;20042;-64
2021/10/25 08:14:35;;;;;;;14.27;8.10;;;;;;;8.15;76.84;98546.13;4975075;28;20457;-62
2021/10/25 08:17:01;;;;;;;18.63;8.43;;;;;;;7.61;78.91;98542.06;4972153;28;20046;-62
2021/10/25 08:19:28;;;;;;;16.20;8.43;;;;;;;8.55;78.97;98530.47;4970851;28;20029;-62
2021/10/25 08:22:05;;;;;;;14.55;7.57;;;;;;;9.19;75.22;98540.13;4970065;28;20125;-64
2021/10/25 08:24:35;;;;;;;16.77;8.50;;;;;;;9.29;71.92;98554.59;4974418;28;20034;-62
2021/10/25 08:27:05;;;;;;;14.88;8.25;;;;;;;9.10;75.27;98556.84;4970976;28;20092;-64
2021/10/25 08:29:33;;;;;;;16.48;7.88;;;;;;;9.33;75.39;98556.22;4972709;28;20018;-64
2021/10/25 08:32:27;;;;;;;15.05;8.20;;;;;;;9.01;72.61;98546.69;4970546;28;20122;-64
2021/10/25 08:39:53;;;;;;;13.95;8.38;;;;;;;9.70;75.60;98539.56;4973663;28;20092;-63
2021/10/25 08:42:22;;;;;;;17.20;9.50;;;;;;;10.36;74.09;98541.97;4972737;28;20045;-63
2021/10/25 08:44:57;;;;;;;15.88;8.63;;;;;;;10.38;68.18;98521.94;4971162;28;20033;-64
2021/10/25 08:47:29;;;;;;;16.05;8.85;;;;;;;10.25;70.11;98525.78;4970339;28;20046;-63
2021/10/25 08:49:56;;;;;;;14.73;8.35;;;;;;;10.41;73.95;98537.47;4971954;28;20058;-63
2021/10/25 08:52:23;;;;;;;14.95;7.90;;;;;;;10.54;69.74;98538.78;4970634;28;20122;-62
2021/10/25 08:54:50;;;;;;;17.17;8.07;;;;;;;10.49;69.57;98535.47;4970133;28;20027;-63
2021/10/25 08:57:17;;;;;;;13.07;8.10;;;;;;;10.96;69.98;98535.66;4971279;28;20086;-63
2021/10/25 08:59:52;;;;;;;15.18;8.30;;;;;;;11.29;67.78;98545.00;4969559;28;20682;-62
2021/10/25 09:02:17;;;;;;;11.77;7.60;;;;;;;11.11;70.63;98554.31;4969031;28;20178;-63
2021/10/25 09:04:56;;;;;;;11.98;7.35;;;;;;;11.27;69.73;98555.50;4970638;28;20408;-62
2021/10/25 09:07:21;;;;;;;15.30;7.78;;;;;;;11.81;68.18;98544.88;4970221;28;20046;-62
2021/10/25 09:09:46;;;;;;;13.05;7.68;;;;;;;12.46;67.41;98532.78;4971613;28;20400;-65
2021/10/25 09:12:15;;;;;;;14.93;8.30;;;;;;;11.20;70.93;98522.69;4970433;28;20424;-61
2021/10/25 09:14:40;;;;;;;12.43;7.32;;;;;;;12.75;65.83;98523.75;4972425;28;20038;-61
2021/10/25 09:17:09;;;;;;;11.32;6.95;;;;;;;13.46;67.00;98529.47;4971890;28;20039;-63
2021/10/25 09:19:37;;;;;;;13.48;7.53;;;;;;;14.12;67.51;98519.53;4969988;28;20107;-64
2021/10/25 09:22:09;;;;;;;11.05;7.63;;;;;;;14.02;61.44;98516.47;4970864;28;20042;-63
2021/10/25 09:24:35;;;;;;;12.02;7.82;;;;;;;13.44;60.38;98517.38;4969888;28;20114;-61
2021/10/25 09:27:05;;;;;;;14.32;7.38;;;;;;;14.54;56.63;98519.25;4970287;28;20038;-61
2021/10/25 09:29:34;;;;;;;12.98;7.78;;;;;;;14.18;58.15;98525.31;4972538;28;20026;-65
2021/10/25 09:32:11;;;;;;;13.25;7.55;;;;;;;14.59;57.16;98514.66;4969713;28;20062;-65
2021/10/25 09:34:57;;;;;;;17.48;8.65;;;;;;;14.31;58.10;98515.09;4972356;28;20031;-62
2021/10/25 09:37:28;;;;;;;13.18;7.78;;;;;;;14.19;58.17;98513.91;4971902;28;20045;-64
2021/10/25 09:40:00;;;;;;;13.48;7.80;;;;;;;15.01;54.48;98526.53;4971852;28;20038;-63
2021/10/25 09:50:58;;;;;;;13.52;7.57;;;;;;;15.81;53.30;98490.00;4969788;28;20042;-64
2021/10/25 09:53:39;;;;;;;14.02;7.30;;;;;;;16.03;51.92;98500.22;4968649;28;20955;-65
2021/10/25 09:56:09;;;;;;;13.68;7.18;;;;;;;15.57;53.52;98497.41;4971129;28;20625;-64
2021/10/25 09:58:42;;;;;;;12.27;7.22;;;;;;;16.29;51.74;98490.00;4971680;28;20054;-64
2021/10/25 10:01:09;;;;;;;11.23;7.13;;;;;;;14.15;56.39;98498.38;4970208;28;20042;-64
2021/10/25 10:03:35;;;;;;;11.68;7.57;;;;;;;14.67;55.12;98505.53;4970080;28;20046;-63
2021/10/25 10:06:00;;;;;;;14.88;7.47;;;;;;;14.50;55.83;98508.94;4970348;28;20035;-62
2021/10/25 10:08:27;;;;;;;12.70;7.32;;;;;;;14.45;56.41;98496.91;4969978;28;20400;-63
2021/10/25 10:10:55;;;;;;;10.75;6.10;;;;;;;14.02;58.64;98498.13;4970425;28;20074;-64
2021/10/25 10:13:23;;;;;;;11.90;7.30;;;;;;;13.88;57.54;98496.16;4974620;28;20064;-62
2021/10/25 10:15:49;;;;;;;13.45;7.78;;;;;;;14.06;57.14;98490.03;4973643;28;20126;-65
2021/10/25 10:18:27;;;;;;;11.32;7.22;;;;;;;13.55;58.92;98488.06;4971977;28;20029;-64
2021/10/25 10:20:58;;;;;;;13.25;7.30;;;;;;;13.82;57.96;98485.94;4974557;28;20093;-63
2021/10/25 10:23:24;;;;;;;13.10;8.00;;;;;;;13.38;59.66;98494.91;4974065;28;20613;-66
2021/10/25 10:25:59;;;;;;;15.10;8.20;;;;;;;13.56;59.43;98490.59;4972342;28;20757;-63
2021/10/25 10:28:52;;;;;;;13.25;7.97;;;;;;;14.48;56.67;98477.53;4974249;28;20037;-63
2021/10/25 10:31:17;;;;;;;;;;;;;;;15.18;54.63;98469.66;4971306;28;20047;-65
2021/10/25 10:33:54;;;;;;;13.90;7.37;;;;;;;16.21;52.21;98482.53;4971610;28;19925;-64
2021/10/25 10:36:25;;;;;;;12.40;7.63;;;;;;;14.36;56.67;98489.50;4972829;28;20122;-66
2021/10/25 10:38:59;;;;;;;11.10;7.10;;;;;;;15.85;53.57;98470.50;4972511;28;20034;-61
2021/10/25 10:41:40;;;;;;;9.15;6.15;;;;;;;16.58;52.78;98464.63;4973919;28;20105;-64
2021/10/25 10:44:17;;;;;;;12.15;7.47;;;;;;;14.95;55.15;98468.25;4973029;28;20496;-63
2021/10/25 10:46:49;;;;;;;12.73;7.38;;;;;;;14.56;55.92;98482.44;4973865;28;20038;-62
2021/10/25 10:49:42;;;;;;;11.70;6.80;;;;;;;14.76;55.84;98474.44;4973377;28;20035;-63
2021/10/25 10:52:32;;;;;;;10.57;6.65;;;;;;;16.49;52.13;98466.00;4972882;28;20045;-62
2021/10/25 11:00:38;;;;;;;13.50;7.25;;;;;;;14.68;55.64;98455.56;4973188;28;20023;-64
2021/10/25 11:03:17;;;;;;;12.20;7.55;;;;;;;15.45;54.29;98456.84;4973493;28;20276;-65
2021/10/25 11:05:45;;;;;;;11.43;7.40;;;;;;;15.75;52.74;98459.63;4973871;28;20062;-66
2021/10/25 11:08:16;;;;;;;14.57;6.90;;;;;;;16.08;52.98;98452.56;4973110;28;20034;-66
2021/10/25 11:10:46;;;;;;;12.77;7.53;;;;;;;15.61;54.22;98452.44;4969953;28;20670;-66
2021/10/25 11:13:24;;;;;;;15.15;7.57;;;;;;;16.54;51.76;98468.38;4973763;28;20034;-65
2021/10/25 11:16:05;;;;;;;12.43;7.32;;;;;;;16.30;54.34;98455.69;4973901;28;20039;-64
2021/10/25 11:18:36;;;;;;;16.98;8.00;;;;;;;15.74;53.54;98457.09;4972252;28;20548;-65
2021/10/25 11:21:35;;;;;;;13.65;7.55;;;;;;;15.82;54.34;98454.88;4971030;28;20475;-65
2021/10/25 11:24:15;;;;;;;12.63;7.03;;;;;;;15.79;53.75;98457.69;4970236;28;20049;-63
2021/10/25 11:26:46;;;;;;;13.32;6.85;;;;;;;15.45;54.66;98456.00;4971731;28;20633;-64
2021/10/25 11:29:26;;;;;;;14.20;7.20;;;;;;;15.86;53.25;98448.53;4971900;28;20039;-64
2021/10/25 11:31:58;;;;;;;13.30;7.28;;;;;;;15.70;54.65;98439.75;4973954;28;20117;-63
2021/10/25 11:34:26;;;;;;;12.17;6.97;;;;;;;15.46;54.89;98436.66;4974706;28;20142;-64
2021/10/25 11:36:59;;;;;;;13.57;6.82;;;;;;;14.91;56.02;98435.19;4973796;28;20920;-64
2021/10/25 11:39:29;;;;;;;;;;;;;;;15.29;55.70;98429.69;4972588;28;20041;-66
2021/10/25 11:41:55;;;;;;;13.30;7.75;;;;;;;15.10;56.07;98424.56;4970221;28;20572;-63
2021/10/25 11:44:20;;;;;;;10.65;6.85;;;;;;;15.52;55.32;98421.41;4971975;28;20114;-64
2021/10/25 11:46:46;;;;;;;15.43;7.53;;;;;;;15.15;56.25;98417.28;4969326;28;20050;-66
2021/10/25 11:49:11;;;;;;;13.57;7.43;;;;;;;14.68;57.41;98421.44;4974191;28;20564;-66
2021/10/25 11:51:51;;;;;;;11.75;7.20;;;;;;;14.50;58.61;98427.59;4972525;28;20746;-65
2021/10/25 11:54:16;;;;;;;11.90;7.75;;;;;;;15.26;56.28;98417.56;4974428;28;20782;-65
2021/10/25 11:56:53;;;;;;;13.65;7.45;;;;;;;15.23;56.11;98408.03;4972634;28;20553;-65
2021/10/25 11:59:20;;;;;;;12.25;7.20;;;;;;;15.14;56.56;98405.06;4974303;28;20038;-64
2021/10/25 12:01:47;;;;;;;15.05;7.53;;;;;;;15.67;55.69;98408.34;4968287;28;20130;-66
2021/10/25 12:04:14;;;;;;;13.23;7.72;;;;;;;15.15;56.42;98404.16;4972440;28;20027;-65
2021/10/25 12:06:40;;;;;;;11.13;6.47;;;;;;;15.17;56.35;98405.75;4986193;28;20042;-64
2021/10/25 12:09:08;;;;;;;13.15;7.15;;;;;;;14.66;57.22;98404.91;4973500;28;20045;-63
2021/10/25 12:11:53;;;;;;;13.38;7.35;;;;;;;14.74;57.48;98402.75;4971567;28;20462;-64
2021/10/25 12:14:30;;;;;;;12.73;7.72;;;;;;;15.22;56.96;98406.38;4972819;28;20033;-64
2021/10/25 12:16:56;;;;;;;9.52;6.18;;;;;;;15.65;57.61;98404.97;4971397;28;20134;-66
2021/10/25 12:19:22;;;;;;;13.35;7.15;;;;;;;15.41;56.70;98395.69;4969948;28;20023;-64
2021/10/25 12:21:48;;;;;;;12.30;7.13;;;;;;;15.13;56.85;98404.22;4978918;28;20614;-63
2021/10/25 12:24:14;;;;;;;14.27;7.15;;;;;;;15.74;55.37;98394.81;4971453;28;20505;-65
2021/10/25 12:26:41;;;;;;;9.55;6.50;;;;;;;15.39;55.89;98388.84;4969328;28;20047;-63
2021/10/25 12:29:17;;;;;;;12.60;6.75;;;;;;;15.14;56.69;98381.41;4970417;28;20189;-65
2021/10/25 12:31:44;;;;;;;8.30;4.45;;;;;;;15.93;56.37;98384.09;4970619;28;20035;-65
2021/10/25 12:34:10;;;;;;;9.55;5.45;;;;;;;15.52;58.22;98379.34;4971847;28;20029;-65
2021/10/25 12:36:38;;;;;;;14.13;6.43;;;;;;;15.39;57.41;98386.22;4969249;28;20042;-63
2021/10/25 12:39:10;;;;;;;12.48;7.10;;;;;;;14.83;57.87;98386.53;4970461;28;20069;-67
2021/10/25 12:41:45;;;;;;;;;;;;;;;15.12;56.98;98384.13;4968198;28;20039;-65
2021/10/25 12:44:11;;;;;;;11.65;7.00;;;;;;;15.27;56.64;98384.22;4972603;28;19980;-66
2021/10/25 12:46:36;;;;;;;13.20;7.07;;;;;;;15.75;55.82;98379.88;4971138;28;20413;-65
2021/10/25 12:49:03;;;;;;;11.00;6.80;;;;;;;16.00;55.32;98374.91;4971073;28;20037;-65
2021/10/25 12:51:41;;;;;;;14.75;8.43;;;;;;;15.64;55.88;98369.06;4969895;28;20037;-64
2021/10/25 12:54:12;;;;;;;13.45;7.25;;;;;;;15.53;56.38;98360.03;4972673;28;20034;-63
2021/10/25 12:56:38;;;;;;;9.82;6.47;;;;;;;16.37;54.71;98370.16;4971152;28;20042;-63
2021/10/25 12:59:07;;;;;;;13.43;6.88;;;;;;;15.87;55.32;98363.41;4970205;28;20037;-64
2021/10/25 13:01:33;;;;;;;9.23;6.25;;;;;;;16.26;54.89;98364.66;4971406;28;20050;-63
2021/10/25 13:04:01;;;;;;;11.98;6.95;;;;;;;15.51;55.93;98364.53;4970391;28;20022;-65
2021/10/25 13:06:30;;;;;;;10.93;6.93;;;;;;;15.51;56.44;98375.03;4970227;28;20676;-63
2021/10/25 13:09:00;;;;;;;11.23;6.80;;;;;;;16.30;54.47;98373.22;4972670;28;20038;-64
2021/10/25 13:11:26;;;;;;;11.73;6.85;;;;;;;15.89;55.98;98366.78;4972477;28;20039;-66